• Join FlightAware (Why Join?)
  • Login
  • US Flag 
01:37AM EDT


 

Airport Tracker/Info


-or-


 

Live Flight TrackerFlight Track Log ✈ AAL1326 ✈ 13-Apr-2013 ✈ KORD - KFLL

Flight Track Log - Related Links

Times and Time Zones

All times are in EDT time to prevent confusion due to time zone crossing. See the AAL1326 flight status page for this flight to view local times or setup timezone preferences in your user account.

Time Position Orientation Groundspeed Altitude Reporting Facility
EDT Latitude Longitude Course Direction KTS MPH feet Rate Location/Type
06:57PM 41.9460 -87.9060 220° Southwest 151 174 1,700  Level FlightAware
06:57PM 41.9420 -87.9060 180° South 157 181 1,900 1,680 Climbing FlightAware
06:58PM 41.9260 -87.9030 172° South 188 216 2,400 1,800 Climbing FlightAware
06:58PM 41.8960 -87.8980 173° South 228 262 3,400 2,160 Climbing FlightAware
06:59PM 41.8630 -87.8900 170° South 260 299 4,600 2,820 Climbing FlightAware
06:59PM 41.8340 -87.8790 164° South 266 306 6,000 3,000 Climbing FlightAware
06:59PM 41.7950 -87.8640 164° South 286 329 7,400 2,580 Climbing FlightAware
07:00PM 41.7630 -87.8520 164° South 304 350 8,400 2,820 Climbing FlightAware
07:00PM 41.7440 -87.8450 165° South 303 349 9,300 3,300 Climbing FlightAware
07:01PM 41.6810 -87.8220 165° South 314 361 11,700 2,880 Climbing FlightAware
07:02PM 41.6230 -87.8000 164° South 330 380 13,400 2,160 Climbing FlightAware
07:02PM 41.5550 -87.7760 165° South 363 418 14,800 1,920 Climbing FlightAware
07:03PM 41.4880 -87.7520 165° South 391 450 16,200 2,160 Climbing FlightAware
07:04PM 41.4130 -87.7250 165° South 403 464 17,700 2,100 Climbing FlightAware
07:04PM 41.3310 -87.7240 179° South 405 466 19,200 2,100 Climbing FlightAware
07:05PM 41.2540 -87.7260 181° South 417 480 20,700 2,160 Climbing FlightAware
07:06PM 41.1670 -87.7210 178° South 434 499 22,300 1,920 Climbing FlightAware
07:06PM 41.0870 -87.7110 175° South 446 513 23,500 1,680 Climbing FlightAware
07:07PM 41.0050 -87.6990 174° South 456 525 24,600 1,680 Climbing FlightAware
07:08PM 40.9110 -87.6870 174° South 462 532 25,900 1,740 Climbing FlightAware
07:09PM 40.8210 -87.6750 174° South 465 535 27,100 1,680 Climbing FlightAware
07:09PM 40.7290 -87.6620 174° South 469 540 28,300 1,380 Climbing FlightAware
07:10PM 40.6420 -87.6490 174° South 475 547 29,100 1,260 Climbing FlightAware
07:11PM 40.5570 -87.6390 175° South 477 549 30,000 1,620 Climbing FlightAware
07:11PM 40.4660 -87.6270 174° South 473 544 31,300 2,160 Climbing FlightAware
07:12PM 40.3650 -87.6130 174° South 453 521 33,100 1,680 Climbing FlightAware
07:13PM 40.2800 -87.5830 165° South 479 551 33,900 960 Climbing FlightAware
07:13PM 40.1980 -87.5320 155° Southeast 487 560 34,500 1,020 Climbing FlightAware
07:14PM 40.1150 -87.4790 154° Southeast 483 556 35,300 1,320 Climbing FlightAware
07:15PM 40.0260 -87.4230 154° Southeast 475 547 36,400 1,200 Climbing FlightAware
07:16PM 39.9440 -87.3710 154° Southeast 473 544 37,000 420 Climbing FlightAware
07:16PM 39.8550 -87.3210 157° South 471 542 37,000  Level FlightAware
07:17PM 39.7730 -87.2790 159° South 471 542 37,000  Level FlightAware
07:18PM 39.6650 -87.2250 159° South 472 543 37,000  Level FlightAware
07:19PM 39.5860 -87.1860 159° South 472 543 37,000  Level FlightAware
07:19PM 39.4860 -87.1350 159° South 472 543 37,000  Level FlightAware
07:20PM 39.4030 -87.0940 159° South 467 537 37,000  Level FlightAware
07:21PM 39.3160 -87.0500 159° South 460 529 37,000  Level FlightAware
07:21PM 39.2440 -87.0150 159° South 458 527 37,000  Level FlightAware
07:22PM 39.1480 -86.9670 159° South 459 528 37,000  Level FlightAware
07:23PM 39.0670 -86.9260 159° South 460 529 37,000  Level FlightAware
07:23PM 38.9870 -86.8860 159° South 456 525 37,000  Level FlightAware
07:24PM 38.9000 -86.8440 159° South 451 519 37,000  Level FlightAware
07:25PM 38.8240 -86.8070 159° South 449 517 37,000  Level FlightAware
07:26PM 38.7350 -86.7640 159° South 447 514 37,000  Level FlightAware
07:26PM 38.6580 -86.7260 159° South 446 513 37,000  Level FlightAware
07:27PM 38.5830 -86.6890 159° South 444 511 37,000  Level FlightAware
07:28PM 38.4970 -86.6470 159° South 443 510 37,000  Level FlightAware
07:28PM 38.4200 -86.6100 159° South 442 509 37,000  Level FlightAware
07:29PM 38.3330 -86.5680 159° South 442 509 37,000  Level FlightAware
07:30PM 38.2580 -86.5320 159° South 442 509 37,000  Level FlightAware
07:30PM 38.1790 -86.4930 159° South 444 511 37,000  Level FlightAware
07:31PM 38.0930 -86.4520 159° South 444 511 37,000  Level FlightAware
07:32PM 38.0160 -86.4150 159° South 444 511 37,000  Level FlightAware
07:33PM 37.9310 -86.3740 159° South 445 512 37,000  Level FlightAware
07:33PM 37.8530 -86.3370 159° South 444 511 37,000  Level FlightAware
07:34PM 37.7780 -86.3020 160° South 445 512 37,000  Level FlightAware
07:35PM 37.6910 -86.2600 159° South 444 511 37,000  Level FlightAware
07:35PM 37.6110 -86.2220 159° South 440 506 37,000  Level FlightAware
07:36PM 37.5280 -86.1830 160° South 439 505 37,000  Level FlightAware
07:37PM 37.4510 -86.1470 160° South 439 505 37,000  Level FlightAware
07:37PM 37.3820 -86.1140 159° South 440 506 37,000  Level FlightAware
07:38PM 37.2880 -86.0700 160° South 440 506 37,000  Level FlightAware
07:39PM 37.2120 -86.0340 159° South 440 506 37,000  Level FlightAware
07:39PM 37.1806 -86.0197 160° South 441 507 37,000  Level FlightAware ADS-B
07:40PM 37.1310 -85.9970 160° South 440 506 37,000  Level FlightAware
07:40PM 37.1024 -85.9834 159° South 441 507 37,000  Level FlightAware ADS-B
07:41PM 36.9757 -85.9241 159° South 442 509 37,000  Level FlightAware ADS-B
07:41PM 36.9165 -85.8964 159° South 443 510 37,000  Level FlightAware ADS-B
07:42PM 36.8541 -85.8676 160° South 442 509 37,000  Level FlightAware ADS-B
07:42PM 36.7961 -85.8410 160° South 443 510 37,000  Level FlightAware ADS-B
07:43PM 36.7353 -85.8130 160° South 443 510 37,000  Level FlightAware ADS-B
07:44PM 36.6780 -85.7860 159° South 443 510 37,000  Level FlightAware
07:44PM 36.6516 -85.7740 160° South 444 511 37,000  Level FlightAware ADS-B
07:44PM 36.6000 -85.7500 160° South 442 509 37,000  Level FlightAware
07:44PM 36.5803 -85.7413 160° South 443 510 37,000  Level FlightAware ADS-B
07:45PM 36.5165 -85.7121 160° South 443 510 37,000  Level FlightAware ADS-B
07:45PM 36.4588 -85.6855 160° South 444 511 37,000  Level FlightAware ADS-B
07:46PM 36.3923 -85.6547 160° South 444 511 37,000  Level FlightAware ADS-B
07:47PM 36.3300 -85.6261 160° South 444 511 37,000  Level FlightAware ADS-B
07:47PM 36.2700 -85.5988 160° South 445 512 37,000  Level FlightAware ADS-B
07:48PM 36.2112 -85.5719 160° South 447 514 37,000  Level FlightAware ADS-B
07:48PM 36.1426 -85.5407 160° South 448 516 37,000  Level FlightAware ADS-B
07:49PM 36.0833 -85.5140 160° South 449 517 37,000  Level FlightAware ADS-B
07:49PM 36.0244 -85.4873 160° South 452 520 37,000  Level FlightAware ADS-B
07:50PM 35.9438 -85.4507 160° South 454 522 37,000  Level FlightAware ADS-B
07:50PM 35.8840 -85.4237 160° South 454 522 37,000  Level FlightAware ADS-B
07:51PM 35.8216 -85.3956 160° South 455 524 37,000  Level FlightAware ADS-B
07:51PM 35.7615 -85.3686 160° South 456 525 37,000  Level FlightAware ADS-B
07:52PM 35.6912 -85.3371 160° South 456 525 37,000  Level FlightAware ADS-B
07:52PM 35.6316 -85.3104 160° South 456 525 37,000  Level FlightAware ADS-B
07:53PM 35.5719 -85.2835 160° South 457 526 37,000  Level FlightAware ADS-B
07:53PM 35.5108 -85.2563 160° South 457 526 37,000  Level FlightAware ADS-B
07:54PM 35.4480 -85.2281 160° South 456 525 37,000  Level FlightAware ADS-B
07:54PM 35.3866 -85.2007 160° South 453 521 37,000  Level FlightAware ADS-B
07:56PM 35.2620 -85.1450 160° South 453 521 37,000  Level FlightAware
07:56PM 35.2106 -85.1225 160° South 453 521 37,000  Level FlightAware ADS-B
07:56PM 35.1510 -85.0962 160° South 453 521 37,000  Level FlightAware ADS-B
07:57PM 35.0940 -85.0710 160° South 454 522 37,000  Level FlightAware
07:57PM 35.0397 -85.0470 160° South 454 522 37,000  Level FlightAware ADS-B
07:58PM 34.9515 -85.0083 160° South 454 522 37,000  Level FlightAware ADS-B
07:59PM 34.8325 -84.9556 160° South 453 521 37,000  Level FlightAware ADS-B
08:00PM 34.7595 -84.9238 160° South 453 521 37,000  Level FlightAware ADS-B
08:00PM 34.6996 -84.8975 160° South 453 521 37,000  Level FlightAware ADS-B
08:01PM 34.5880 -84.8490 160° South 443 510 37,000  Level FlightAware
08:02PM 34.5100 -84.8150 160° South 448 516 37,000  Level FlightAware
08:03PM 34.4330 -84.7810 160° South 442 509 37,000  Level FlightAware
08:03PM 34.3420 -84.7420 161° South 444 511 37,000  Level FlightAware
08:04PM 34.2640 -84.7080 160° South 444 511 37,000  Level FlightAware
08:05PM 34.1810 -84.6720 160° South 444 511 37,000  Level FlightAware
08:05PM 34.1010 -84.6370 160° South 447 514 37,000  Level FlightAware
08:06PM 34.0120 -84.5990 161° South 447 514 37,000  Level FlightAware
08:07PM 33.9330 -84.5650 160° South 448 516 37,000  Level FlightAware
08:08PM 33.8540 -84.5230 156° South 464 534 37,000  Level FlightAware
08:08PM 33.7640 -84.4610 150° Southeast 464 534 37,000  Level FlightAware
08:09PM 33.6950 -84.4130 150° Southeast 465 535 37,000  Level FlightAware
08:10PM 33.6050 -84.3520 151° Southeast 466 536 37,000  Level FlightAware
08:10PM 33.5280 -84.2980 150° Southeast 467 537 37,000  Level FlightAware
08:11PM 33.4640 -84.2540 150° Southeast 467 537 37,000  Level FlightAware
08:12PM 33.3660 -84.1870 150° Southeast 473 544 37,000  Level FlightAware
08:12PM 33.2890 -84.1340 150° Southeast 474 545 37,000  Level FlightAware
08:13PM 33.2050 -84.0750 150° Southeast 476 548 37,000  Level FlightAware
08:14PM 33.1260 -84.0210 150° Southeast 477 549 37,000  Level FlightAware
08:15PM 33.0490 -83.9680 150° Southeast 478 550 37,000  Level FlightAware
08:15PM 32.9650 -83.9100 150° Southeast 479 551 37,000  Level FlightAware
08:16PM 32.8930 -83.8610 150° Southeast 472 543 37,000  Level FlightAware
08:17PM 32.8100 -83.8030 150° Southeast 472 543 37,000  Level FlightAware
08:17PM 32.7490 -83.7570 148° Southeast 472 543 37,000  Level FlightAware
08:18PM 32.6860 -83.7110 148° Southeast 472 543 37,000  Level FlightAware
08:19PM 32.6070 -83.6520 148° Southeast 472 543 37,000  Level FlightAware
08:19PM 32.5440 -83.6050 148° Southeast 472 543 37,000  Level FlightAware
08:20PM 32.4310 -83.6530 200° South 37,000  Level FlightAware
08:21PM 32.3450 -83.6233 200° South 466 536 37,000  Level Atlanta Center
08:22PM 32.2217 -83.5772 162° South 466 536 37,000  Level Atlanta Center
08:22PM 32.1064 -83.5303 161° South 468 539 37,000  Level Jacksonville Center
08:23PM 31.9939 -83.4878 162° South 473 544 37,000  Level Jacksonville Center
08:24PM 31.8667 -83.4406 163° South 479 551 37,000  Level Jacksonville Center
08:25PM 31.7397 -83.3933 162° South 479 551 37,000  Level Jacksonville Center
08:26PM 31.6144 -83.3464 162° South 479 551 37,000  Level Jacksonville Center
08:27PM 31.4894 -83.3044 164° South 479 551 37,000  Level Jacksonville Center
08:28PM 31.3642 -83.2575 162° South 479 551 37,000  Level Jacksonville Center
08:29PM 31.2286 -83.2083 163° South 479 551 37,000  Level Jacksonville Center
08:30PM 31.1014 -83.1644 164° South 479 551 37,000  Level Jacksonville Center
08:31PM 30.9783 -83.1181 162° South 479 551 37,000  Level Jacksonville Center
08:32PM 30.8511 -83.0717 163° South 479 551 37,000  Level Jacksonville Center
08:33PM 30.7403 -83.0281 161° South 470 541 37,000  Level Jacksonville Center
08:34PM 30.6153 -82.9842 163° South 470 541 37,000  Level Jacksonville Center
08:35PM 30.4900 -82.9383 163° South 470 541 37,000 -60 Level Jacksonville Center
08:36PM 30.3647 -82.8925 162° South 476 548 36,900  Descending Jacksonville Center
08:42PM 29.6850 -82.6540 162° South 475 547 37,000  Climbing FlightAware
08:42PM 29.5900 -82.6200 163° South 476 548 37,000  Level FlightAware
08:43PM 29.5060 -82.5910 163° South 476 548 37,000  Level FlightAware
08:44PM 29.4200 -82.5600 163° South 477 549 37,000  Level FlightAware
08:44PM 29.3270 -82.5270 163° South 477 549 37,000  Level FlightAware
08:45PM 29.2400 -82.4970 163° South 478 550 37,000  Level FlightAware
08:46PM 29.1530 -82.4670 163° South 479 551 37,000  Level FlightAware
08:46PM 29.0720 -82.4500 170° South 460 529 37,000  Level FlightAware
08:47PM 28.9860 -82.4530 182° South 451 519 37,000  Level FlightAware
08:48PM 28.9010 -82.4580 183° South 451 519 37,000  Level FlightAware
08:49PM 28.7880 -82.4640 183° South 448 516 37,000  Level FlightAware
08:49PM 28.7040 -82.4690 183° South 449 517 37,000  Level FlightAware
08:50PM 28.6220 -82.4740 183° South 450 518 37,000  Level FlightAware
08:51PM 28.5390 -82.4790 183° South 447 514 37,000  Level FlightAware
08:51PM 28.4450 -82.4840 183° South 445 512 37,000  Level FlightAware
08:52PM 28.3530 -82.4890 183° South 446 513 37,000  Level FlightAware
08:53PM 28.2710 -82.4930 182° South 446 513 37,000  Level FlightAware
08:54PM 28.1890 -82.4980 183° South 447 514 37,000  Level FlightAware
08:54PM 28.0930 -82.5040 183° South 446 513 37,000  Level FlightAware
08:55PM 28.0100 -82.5090 183° South 445 512 37,000  Level FlightAware
08:56PM 27.9190 -82.4990 174° South 462 532 37,000  Level FlightAware
08:56PM 27.8330 -82.4920 176° South 453 521 37,000  Level FlightAware
08:57PM 27.7370 -82.4860 177° South 452 520 37,000  Level FlightAware
08:58PM 27.6540 -82.4800 176° South 451 519 37,000  Level FlightAware
08:58PM 27.5740 -82.4750 177° South 446 513 37,000  Level FlightAware
08:59PM 27.5140 -82.4800 184° South 438 504 37,000 -240 Level FlightAware
09:00PM 27.4000 -82.4930 186° South 438 504 36,700 -600 Descending FlightAware
09:01PM 27.3200 -82.5020 186° South 446 513 36,100 -960 Descending FlightAware
09:01PM 27.2310 -82.5100 185° South 446 513 35,400 -1,200 Descending FlightAware
09:03PM 27.0610 -82.5220 184° South 457 526 33,600 -1,620 Descending FlightAware
09:03PM 26.9820 -82.4760 153° Southeast 496 571 32,200 -2,040 Descending FlightAware
09:05PM 26.8430 -82.2450 124° Southeast 28,300 -1,980 Descending FlightAware
09:07PM 26.7360 -82.0640 123° Southeast 426 490 25,500 -2,040 Descending FlightAware
09:08PM 26.6630 -81.9410 124° Southeast 404 465 23,000 -1,920 Descending FlightAware
09:09PM 26.5900 -81.8190 124° Southeast 382 440 20,900 -1,380 Descending FlightAware
09:10PM 26.5540 -81.7560 123° Southeast 381 438 20,500 -1,200 Descending FlightAware
09:11PM 26.4900 -81.6530 125° Southeast 373 429 18,900 -960 Descending FlightAware
09:11PM 26.4660 -81.6120 123° Southeast 373 429 18,900  Level FlightAware
09:12PM 26.4250 -81.5440 124° Southeast 373 429 18,900  Level FlightAware
09:13PM 26.3920 -81.4900 124° Southeast 373 429 18,900  Level FlightAware
09:14PM 26.3590 -81.4350 124° Southeast 373 429 18,900  Level FlightAware
09:14PM 26.3260 -81.3810 124° Southeast 373 429 18,900 -3,000 Level FlightAware
09:16PM 26.1940 -81.1340 121° Southeast 321 369 10,200 -3,420 Descending FlightAware
09:17PM 26.1740 -81.0950 120° Southeast 299 344 9,900 -720 Descending FlightAware
09:17PM 26.1700 -81.0870 119° Southeast 297 342 9,800 -180 Descending FlightAware
09:18PM 26.1470 -81.0430 120° Southeast 297 342 9,800 -1,500 Level FlightAware
09:18PM 26.1310 -81.0020 113° Southeast 286 329 8,300 -2,340 Descending FlightAware
09:19PM 26.1140 -80.9620 115° Southeast 281 323 7,700 -1,200 Descending FlightAware
09:19PM 26.1070 -80.9450 115° Southeast 279 321 7,400 -1,200 Descending FlightAware
09:19PM 26.0970 -80.9210 115° Southeast 275 316 7,000 -480 Descending FlightAware
09:20PM 26.0800 -80.8760 113° Southeast 240 276 7,000  Level FlightAware
09:20PM 26.0770 -80.8500 97° East 236 272 7,000  Level FlightAware
09:21PM 26.0770 -80.8110 90° East 236 272 7,000  Level FlightAware
09:22PM 26.0770 -80.7310 90° East 229 264 7,000 -360 Level FlightAware
09:23PM 26.0780 -80.6660 89° East 209 241 6,300 -720 Descending FlightAware
09:23PM 26.0780 -80.6380 90° East 210 242 6,000 -420 Descending FlightAware
09:24PM 26.0780 -80.5860 90° East 206 237 5,800 -480 Descending FlightAware
09:25PM 26.0780 -80.5070 90° East 201 231 5,000 -540 Descending FlightAware
09:26PM 26.0780 -80.4290 90° East 203 234 4,600 -480 Descending FlightAware
09:27PM 26.0780 -80.4130 90° East 203 234 4,300 -1,140 Descending FlightAware
09:28PM 26.0780 -80.3560 90° East 201 231 3,300 -1,080 Descending FlightAware
09:28PM 26.0780 -80.3350 90° East 199 229 3,000 -1,080 Descending FlightAware
09:29PM 26.0770 -80.2850 91° East 194 223 2,100 -1,020 Descending FlightAware
09:29PM 26.0770 -80.2750 90° East 191 220 2,000 -1,080 Descending FlightAware
09:29PM 26.0770 -80.2460 90° East 178 205 1,400 -1,020 Descending FlightAware
09:30PM 26.0770 -80.2220 90° East 157 181 1,000 -840 Descending FlightAware
09:30PM 26.0770 -80.2090 90° East 157 181 800 -780 Descending FlightAware
09:31PM 26.0770 -80.1790 90° East 143 165 300 -480 Descending FlightAware
09:31PM 26.0770 -80.1620 90° East 143 165 300  Level FlightAware